This is the latest recevied weather packets stored in our database for station/object KM4LTG. If no packets are shown the sender has not sent any weather packets the latest 10 day(s).
| Time | Temp. | Humidity | Pressure | Rain* | Wind** | Luminosity | Snow |
|---|---|---|---|---|---|---|---|
| 1777657440 | 28.33° C | 65% | 1013.8 hPa | 0 mm | - | - | - |
| 1777657175 | 28.89° C | 65% | 1013.9 hPa | 0 mm | - | - | - |
| 1777656885 | 29.44° C | 62% | 1014 hPa | 0 mm | - | - | - |
| 1777656620 | 29.44° C | 62% | 1014 hPa | 0 mm | - | - | - |
| 1777656354 | 29.44° C | 63% | 1014 hPa | 0 mm | - | - | - |
| 1777656070 | 28.89° C | 65% | 1014 hPa | 0 mm | - | - | - |
| 1777655790 | 28.89° C | 66% | 1014.1 hPa | 0 mm | - | - | - |
| 1777655511 | 28.33° C | 68% | 1014.2 hPa | 0 mm | - | - | - |
| 1777655265 | 28.89° C | 67% | 1014.1 hPa | 0 mm | - | - | - |
| 1777654980 | 28.89° C | 67% | 1014.3 hPa | 0 mm | - | - | - |
| 1777654410 | 28.89° C | 67% | 1014.4 hPa | 0 mm | - | - | - |
| 1777654155 | 28.89° C | 66% | 1014.4 hPa | 0 mm | - | - | - |
| 1777653880 | 29.44° C | 65% | 1014.3 hPa | 0 mm | - | - | - |
| 1777653622 | 29.44° C | 65% | 1014.3 hPa | 0 mm | - | - | - |
| 1777653360 | 28.89° C | 67% | 1014.3 hPa | 0 mm | - | - | - |
| 1777653090 | 28.89° C | 67% | 1014.3 hPa | 0 mm | - | - | - |
| 1777652845 | 28.89° C | 68% | 1014.3 hPa | 0 mm | - | - | - |
| 1777652545 | 28.33° C | 66% | 1014.4 hPa | 0 mm | - | - | - |
| 1777652294 | 27.78° C | 67% | 1014.5 hPa | 0 mm | - | - | - |
| 1777652025 | 28.33° C | 66% | 1014.4 hPa | 0 mm | - | - | - |
| 1777651765 | 28.33° C | 69% | 1014.5 hPa | 0 mm | - | - | - |
| 1777651465 | 28.33° C | 68% | 1014.4 hPa | 0 mm | - | - | - |
| 1777651200 | 28.33° C | 68% | 1014.4 hPa | 0 mm | - | - | - |
| 1777650941 | 28.33° C | 68% | 1014.4 hPa | 0 mm | - | - | - |
| 1777650006 | 28.89° C | 67% | 1014.6 hPa | 0 mm | - | - | - |
* Rain latest hour (hover to see other rain measurements)
** Current wind speed in m/s (hover to see current wind gust speed)